sensor_id;sensor_type;location;lat;lon;timestamp;P1;durP1;ratioP1;P2;durP2;ratioP2
72899;SDS011;61043;52.036;5.566;2022-08-19T00:01:58;11.23;;;9.52;;
72899;SDS011;61043;52.036;5.566;2022-08-19T00:04:27;10.52;;;9.10;;
72899;SDS011;61043;52.036;5.566;2022-08-19T00:06:57;12.27;;;9.82;;
72899;SDS011;61043;52.036;5.566;2022-08-19T00:09:25;11.73;;;9.45;;
72899;SDS011;61043;52.036;5.566;2022-08-19T00:11:53;10.85;;;9.30;;
72899;SDS011;61043;52.036;5.566;2022-08-19T00:14:22;9.68;;;8.25;;
72899;SDS011;61043;52.036;5.566;2022-08-19T00:16:50;12.13;;;8.73;;
72899;SDS011;61043;52.036;5.566;2022-08-19T00:19:21;10.23;;;8.73;;
72899;SDS011;61043;52.036;5.566;2022-08-19T00:21:49;9.73;;;7.97;;
72899;SDS011;61043;52.036;5.566;2022-08-19T00:24:16;10.23;;;8.73;;
72899;SDS011;61043;52.036;5.566;2022-08-19T00:26:43;10.35;;;8.65;;
72899;SDS011;61043;52.036;5.566;2022-08-19T00:29:13;11.85;;;9.00;;
72899;SDS011;61043;52.036;5.566;2022-08-19T00:31:41;11.88;;;8.43;;
72899;SDS011;61043;52.036;5.566;2022-08-19T00:34:09;10.27;;;9.05;;
72899;SDS011;61043;52.036;5.566;2022-08-19T00:36:38;11.90;;;9.13;;
72899;SDS011;61043;52.036;5.566;2022-08-19T00:39:05;11.82;;;9.05;;
72899;SDS011;61043;52.036;5.566;2022-08-19T00:41:33;10.07;;;8.88;;
72899;SDS011;61043;52.036;5.566;2022-08-19T00:44:01;13.02;;;8.82;;
72899;SDS011;61043;52.036;5.566;2022-08-19T00:46:33;11.02;;;9.25;;
72899;SDS011;61043;52.036;5.566;2022-08-19T00:49:16;10.18;;;8.55;;
72899;SDS011;61043;52.036;5.566;2022-08-19T00:52:07;11.65;;;7.85;;
72899;SDS011;61043;52.036;5.566;2022-08-19T00:54:38;11.98;;;8.52;;
72899;SDS011;61043;52.036;5.566;2022-08-19T00:57:10;9.60;;;8.00;;
72899;SDS011;61043;52.036;5.566;2022-08-19T00:59:41;9.18;;;8.20;;
72899;SDS011;61043;52.036;5.566;2022-08-19T01:02:27;8.38;;;6.90;;
72899;SDS011;61043;52.036;5.566;2022-08-19T01:04:54;8.82;;;7.45;;
72899;SDS011;61043;52.036;5.566;2022-08-19T01:07:21;10.88;;;8.50;;
72899;SDS011;61043;52.036;5.566;2022-08-19T01:09:49;9.13;;;7.05;;
72899;SDS011;61043;52.036;5.566;2022-08-19T01:12:16;8.77;;;7.38;;
72899;SDS011;61043;52.036;5.566;2022-08-19T01:14:43;9.02;;;7.15;;
72899;SDS011;61043;52.036;5.566;2022-08-19T01:17:11;8.27;;;7.25;;
72899;SDS011;61043;52.036;5.566;2022-08-19T01:19:39;9.15;;;7.95;;
72899;SDS011;61043;52.036;5.566;2022-08-19T01:25:02;8.27;;;6.78;;
72899;SDS011;61043;52.036;5.566;2022-08-19T01:27:40;7.65;;;6.55;;
72899;SDS011;61043;52.036;5.566;2022-08-19T01:30:12;9.73;;;6.75;;
72899;SDS011;61043;52.036;5.566;2022-08-19T01:32:41;8.80;;;6.97;;
72899;SDS011;61043;52.036;5.566;2022-08-19T01:35:10;7.40;;;6.38;;
72899;SDS011;61043;52.036;5.566;2022-08-19T01:37:45;7.40;;;6.60;;
72899;SDS011;61043;52.036;5.566;2022-08-19T01:40:35;12.65;;;7.80;;
72899;SDS011;61043;52.036;5.566;2022-08-19T01:43:04;7.70;;;6.72;;
72899;SDS011;61043;52.036;5.566;2022-08-19T01:45:32;8.23;;;7.40;;
72899;SDS011;61043;52.036;5.566;2022-08-19T01:48:00;9.10;;;7.53;;
72899;SDS011;61043;52.036;5.566;2022-08-19T01:50:28;7.65;;;6.78;;
72899;SDS011;61043;52.036;5.566;2022-08-19T01:52:57;8.98;;;7.25;;
72899;SDS011;61043;52.036;5.566;2022-08-19T01:55:33;9.30;;;7.68;;
72899;SDS011;61043;52.036;5.566;2022-08-19T01:58:07;9.32;;;7.18;;
72899;SDS011;61043;52.036;5.566;2022-08-19T02:00:56;9.15;;;7.20;;
72899;SDS011;61043;52.036;5.566;2022-08-19T02:03:23;10.35;;;7.82;;
72899;SDS011;61043;52.036;5.566;2022-08-19T02:05:54;9.80;;;7.65;;
72899;SDS011;61043;52.036;5.566;2022-08-19T02:08:22;8.18;;;6.88;;
72899;SDS011;61043;52.036;5.566;2022-08-19T02:10:49;11.02;;;7.80;;
72899;SDS011;61043;52.036;5.566;2022-08-19T02:13:16;7.95;;;6.32;;
72899;SDS011;61043;52.036;5.566;2022-08-19T02:15:51;8.98;;;7.28;;
72899;SDS011;61043;52.036;5.566;2022-08-19T02:18:18;9.88;;;7.65;;
72899;SDS011;61043;52.036;5.566;2022-08-19T02:20:45;9.27;;;7.50;;
72899;SDS011;61043;52.036;5.566;2022-08-19T02:23:15;10.32;;;7.72;;
72899;SDS011;61043;52.036;5.566;2022-08-19T02:25:43;7.90;;;7.10;;
72899;SDS011;61043;52.036;5.566;2022-08-19T02:28:12;8.27;;;7.47;;
72899;SDS011;61043;52.036;5.566;2022-08-19T02:30:43;7.88;;;6.97;;
72899;SDS011;61043;52.036;5.566;2022-08-19T02:33:10;8.57;;;7.68;;
72899;SDS011;61043;52.036;5.566;2022-08-19T02:35:40;8.50;;;6.53;;
72899;SDS011;61043;52.036;5.566;2022-08-19T02:38:08;8.82;;;7.68;;
72899;SDS011;61043;52.036;5.566;2022-08-19T02:40:55;8.20;;;7.35;;
72899;SDS011;61043;52.036;5.566;2022-08-19T02:43:21;11.60;;;7.75;;
72899;SDS011;61043;52.036;5.566;2022-08-19T02:45:49;9.07;;;7.80;;
72899;SDS011;61043;52.036;5.566;2022-08-19T02:48:18;11.63;;;7.80;;
72899;SDS011;61043;52.036;5.566;2022-08-19T02:50:47;8.32;;;7.25;;
72899;SDS011;61043;52.036;5.566;2022-08-19T02:53:19;7.95;;;6.70;;
72899;SDS011;61043;52.036;5.566;2022-08-19T02:55:46;8.93;;;7.35;;
72899;SDS011;61043;52.036;5.566;2022-08-19T02:58:13;8.70;;;7.35;;
72899;SDS011;61043;52.036;5.566;2022-08-19T03:00:44;8.38;;;6.45;;
72899;SDS011;61043;52.036;5.566;2022-08-19T03:03:12;9.20;;;7.80;;
72899;SDS011;61043;52.036;5.566;2022-08-19T03:05:39;8.25;;;7.30;;
72899;SDS011;61043;52.036;5.566;2022-08-19T03:08:22;8.73;;;7.72;;
72899;SDS011;61043;52.036;5.566;2022-08-19T03:10:50;7.75;;;6.85;;
72899;SDS011;61043;52.036;5.566;2022-08-19T03:13:18;7.82;;;7.03;;
72899;SDS011;61043;52.036;5.566;2022-08-19T03:15:45;9.50;;;7.50;;
72899;SDS011;61043;52.036;5.566;2022-08-19T03:18:13;8.48;;;7.55;;
72899;SDS011;61043;52.036;5.566;2022-08-19T03:20:44;10.38;;;6.72;;
72899;SDS011;61043;52.036;5.566;2022-08-19T03:23:13;10.05;;;6.95;;
72899;SDS011;61043;52.036;5.566;2022-08-19T03:25:41;7.72;;;6.93;;
72899;SDS011;61043;52.036;5.566;2022-08-19T03:28:11;10.10;;;7.75;;
72899;SDS011;61043;52.036;5.566;2022-08-19T03:30:41;8.93;;;7.60;;
72899;SDS011;61043;52.036;5.566;2022-08-19T03:33:09;7.50;;;6.50;;
72899;SDS011;61043;52.036;5.566;2022-08-19T03:35:43;8.57;;;7.07;;
72899;SDS011;61043;52.036;5.566;2022-08-19T03:38:11;8.18;;;7.18;;
72899;SDS011;61043;52.036;5.566;2022-08-19T03:40:37;10.75;;;8.43;;
72899;SDS011;61043;52.036;5.566;2022-08-19T03:43:04;8.35;;;7.30;;
72899;SDS011;61043;52.036;5.566;2022-08-19T03:45:31;11.90;;;8.15;;
72899;SDS011;61043;52.036;5.566;2022-08-19T03:47:58;9.30;;;7.32;;
72899;SDS011;61043;52.036;5.566;2022-08-19T03:50:24;8.65;;;7.25;;
72899;SDS011;61043;52.036;5.566;2022-08-19T03:52:51;9.18;;;8.05;;
72899;SDS011;61043;52.036;5.566;2022-08-19T03:55:18;9.70;;;7.55;;
72899;SDS011;61043;52.036;5.566;2022-08-19T03:57:45;10.55;;;7.13;;
72899;SDS011;61043;52.036;5.566;2022-08-19T04:00:14;8.02;;;7.15;;
72899;SDS011;61043;52.036;5.566;2022-08-19T04:02:41;8.75;;;7.82;;
72899;SDS011;61043;52.036;5.566;2022-08-19T04:05:23;11.43;;;8.68;;
72899;SDS011;61043;52.036;5.566;2022-08-19T04:07:53;9.30;;;7.40;;
72899;SDS011;61043;52.036;5.566;2022-08-19T04:10:23;8.60;;;7.50;;
72899;SDS011;61043;52.036;5.566;2022-08-19T04:12:50;11.60;;;9.20;;
72899;SDS011;61043;52.036;5.566;2022-08-19T04:15:17;12.43;;;9.60;;
72899;SDS011;61043;52.036;5.566;2022-08-19T04:17:43;10.13;;;8.25;;
72899;SDS011;61043;52.036;5.566;2022-08-19T04:20:10;10.65;;;8.25;;
72899;SDS011;61043;52.036;5.566;2022-08-19T04:22:36;15.05;;;10.00;;
72899;SDS011;61043;52.036;5.566;2022-08-19T04:25:03;12.55;;;9.10;;
72899;SDS011;61043;52.036;5.566;2022-08-19T04:27:30;11.55;;;8.02;;
72899;SDS011;61043;52.036;5.566;2022-08-19T04:29:57;12.45;;;7.97;;
72899;SDS011;61043;52.036;5.566;2022-08-19T04:32:23;11.88;;;7.82;;
72899;SDS011;61043;52.036;5.566;2022-08-19T04:34:50;13.98;;;8.82;;
72899;SDS011;61043;52.036;5.566;2022-08-19T04:37:37;11.20;;;7.25;;
72899;SDS011;61043;52.036;5.566;2022-08-19T04:40:05;9.50;;;7.55;;
72899;SDS011;61043;52.036;5.566;2022-08-19T04:42:51;10.25;;;8.00;;
72899;SDS011;61043;52.036;5.566;2022-08-19T04:45:18;10.82;;;8.15;;
72899;SDS011;61043;52.036;5.566;2022-08-19T04:47:48;10.20;;;7.78;;
72899;SDS011;61043;52.036;5.566;2022-08-19T04:50:27;10.00;;;7.43;;
72899;SDS011;61043;52.036;5.566;2022-08-19T04:52:53;12.95;;;7.72;;
72899;SDS011;61043;52.036;5.566;2022-08-19T04:55:21;11.73;;;8.23;;
72899;SDS011;61043;52.036;5.566;2022-08-19T04:57:49;13.25;;;9.50;;
72899;SDS011;61043;52.036;5.566;2022-08-19T05:00:16;14.52;;;9.18;;
72899;SDS011;61043;52.036;5.566;2022-08-19T05:02:43;13.35;;;9.38;;
72899;SDS011;61043;52.036;5.566;2022-08-19T05:05:09;13.07;;;9.77;;
72899;SDS011;61043;52.036;5.566;2022-08-19T05:07:36;19.73;;;14.32;;
72899;SDS011;61043;52.036;5.566;2022-08-19T05:10:04;17.40;;;11.88;;
72899;SDS011;61043;52.036;5.566;2022-08-19T05:12:31;15.40;;;11.40;;
72899;SDS011;61043;52.036;5.566;2022-08-19T05:14:58;16.77;;;10.95;;
72899;SDS011;61043;52.036;5.566;2022-08-19T05:17:26;14.45;;;10.52;;
72899;SDS011;61043;52.036;5.566;2022-08-19T05:19:58;15.93;;;10.63;;
72899;SDS011;61043;52.036;5.566;2022-08-19T05:22:44;13.60;;;9.68;;
72899;SDS011;61043;52.036;5.566;2022-08-19T05:25:15;12.82;;;9.70;;
72899;SDS011;61043;52.036;5.566;2022-08-19T05:27:45;13.02;;;9.90;;
72899;SDS011;61043;52.036;5.566;2022-08-19T05:30:13;12.55;;;8.52;;
72899;SDS011;61043;52.036;5.566;2022-08-19T05:32:40;12.45;;;8.70;;
72899;SDS011;61043;52.036;5.566;2022-08-19T05:35:08;11.80;;;8.70;;
72899;SDS011;61043;52.036;5.566;2022-08-19T05:37:35;13.38;;;9.73;;
72899;SDS011;61043;52.036;5.566;2022-08-19T05:40:02;17.02;;;11.77;;
72899;SDS011;61043;52.036;5.566;2022-08-19T05:42:30;13.95;;;10.43;;
72899;SDS011;61043;52.036;5.566;2022-08-19T05:44:57;15.48;;;11.32;;
72899;SDS011;61043;52.036;5.566;2022-08-19T05:47:24;15.52;;;11.20;;
72899;SDS011;61043;52.036;5.566;2022-08-19T05:49:50;18.10;;;11.25;;
72899;SDS011;61043;52.036;5.566;2022-08-19T05:52:18;15.27;;;11.05;;
72899;SDS011;61043;52.036;5.566;2022-08-19T05:54:51;18.50;;;11.50;;
72899;SDS011;61043;52.036;5.566;2022-08-19T05:57:21;19.88;;;12.77;;
72899;SDS011;61043;52.036;5.566;2022-08-19T05:59:48;24.52;;;15.05;;
72899;SDS011;61043;52.036;5.566;2022-08-19T06:02:26;23.17;;;14.23;;
72899;SDS011;61043;52.036;5.566;2022-08-19T06:07:20;19.58;;;12.25;;
72899;SDS011;61043;52.036;5.566;2022-08-19T06:09:47;25.60;;;15.65;;
72899;SDS011;61043;52.036;5.566;2022-08-19T06:12:26;33.20;;;19.50;;
72899;SDS011;61043;52.036;5.566;2022-08-19T06:14:58;32.70;;;19.15;;
72899;SDS011;61043;52.036;5.566;2022-08-19T06:17:28;35.78;;;20.80;;
72899;SDS011;61043;52.036;5.566;2022-08-19T06:19:57;36.65;;;20.42;;
72899;SDS011;61043;52.036;5.566;2022-08-19T06:22:24;38.47;;;22.10;;
72899;SDS011;61043;52.036;5.566;2022-08-19T06:24:51;36.20;;;19.83;;
72899;SDS011;61043;52.036;5.566;2022-08-19T06:27:20;37.70;;;20.95;;
72899;SDS011;61043;52.036;5.566;2022-08-19T06:29:47;38.33;;;19.55;;
72899;SDS011;61043;52.036;5.566;2022-08-19T06:32:15;43.58;;;24.52;;
72899;SDS011;61043;52.036;5.566;2022-08-19T06:34:42;53.50;;;28.02;;
72899;SDS011;61043;52.036;5.566;2022-08-19T06:37:10;45.45;;;24.92;;
72899;SDS011;61043;52.036;5.566;2022-08-19T06:39:39;42.92;;;23.83;;
72899;SDS011;61043;52.036;5.566;2022-08-19T06:42:07;42.53;;;23.75;;
72899;SDS011;61043;52.036;5.566;2022-08-19T06:44:37;48.42;;;26.80;;
72899;SDS011;61043;52.036;5.566;2022-08-19T06:47:10;46.20;;;23.70;;
72899;SDS011;61043;52.036;5.566;2022-08-19T06:49:48;52.75;;;28.98;;
72899;SDS011;61043;52.036;5.566;2022-08-19T06:52:14;52.45;;;25.55;;
72899;SDS011;61043;52.036;5.566;2022-08-19T06:54:42;51.03;;;27.13;;
72899;SDS011;61043;52.036;5.566;2022-08-19T06:57:21;47.35;;;23.70;;
72899;SDS011;61043;52.036;5.566;2022-08-19T06:59:48;52.65;;;27.70;;
72899;SDS011;61043;52.036;5.566;2022-08-19T07:02:15;61.47;;;30.13;;
72899;SDS011;61043;52.036;5.566;2022-08-19T07:04:46;57.58;;;30.30;;
72899;SDS011;61043;52.036;5.566;2022-08-19T07:07:18;59.88;;;30.95;;
72899;SDS011;61043;52.036;5.566;2022-08-19T07:09:47;56.13;;;29.27;;
72899;SDS011;61043;52.036;5.566;2022-08-19T07:12:25;61.00;;;31.15;;
72899;SDS011;61043;52.036;5.566;2022-08-19T07:14:55;54.38;;;29.08;;
72899;SDS011;61043;52.036;5.566;2022-08-19T07:17:22;57.85;;;30.83;;
72899;SDS011;61043;52.036;5.566;2022-08-19T07:19:50;58.45;;;30.50;;
72899;SDS011;61043;52.036;5.566;2022-08-19T07:22:19;61.57;;;30.97;;
72899;SDS011;61043;52.036;5.566;2022-08-19T07:24:49;54.80;;;29.40;;
72899;SDS011;61043;52.036;5.566;2022-08-19T07:27:17;58.35;;;29.88;;
72899;SDS011;61043;52.036;5.566;2022-08-19T07:29:50;60.70;;;27.60;;
72899;SDS011;61043;52.036;5.566;2022-08-19T07:32:23;54.40;;;29.00;;
72899;SDS011;61043;52.036;5.566;2022-08-19T07:34:53;57.97;;;30.15;;
72899;SDS011;61043;52.036;5.566;2022-08-19T07:37:21;56.78;;;26.35;;
72899;SDS011;61043;52.036;5.566;2022-08-19T07:39:48;49.22;;;27.75;;
72899;SDS011;61043;52.036;5.566;2022-08-19T07:42:15;56.60;;;29.80;;
72899;SDS011;61043;52.036;5.566;2022-08-19T07:44:44;58.28;;;29.65;;
72899;SDS011;61043;52.036;5.566;2022-08-19T07:47:16;52.55;;;28.05;;
72899;SDS011;61043;52.036;5.566;2022-08-19T07:50:04;60.80;;;30.35;;
72899;SDS011;61043;52.036;5.566;2022-08-19T07:52:34;52.97;;;28.95;;
72899;SDS011;61043;52.036;5.566;2022-08-19T07:55:03;61.53;;;30.90;;
72899;SDS011;61043;52.036;5.566;2022-08-19T07:57:30;56.13;;;29.58;;
72899;SDS011;61043;52.036;5.566;2022-08-19T07:59:58;55.70;;;29.40;;
72899;SDS011;61043;52.036;5.566;2022-08-19T08:02:25;49.17;;;27.17;;
72899;SDS011;61043;52.036;5.566;2022-08-19T08:04:51;56.78;;;27.95;;
72899;SDS011;61043;52.036;5.566;2022-08-19T08:07:36;54.00;;;27.20;;
72899;SDS011;61043;52.036;5.566;2022-08-19T08:10:21;51.42;;;26.23;;
72899;SDS011;61043;52.036;5.566;2022-08-19T08:12:49;51.83;;;27.05;;
72899;SDS011;61043;52.036;5.566;2022-08-19T08:15:35;51.17;;;26.33;;
72899;SDS011;61043;52.036;5.566;2022-08-19T08:18:08;53.58;;;26.35;;
72899;SDS011;61043;52.036;5.566;2022-08-19T08:20:35;47.92;;;26.33;;
72899;SDS011;61043;52.036;5.566;2022-08-19T08:23:01;56.50;;;30.08;;
72899;SDS011;61043;52.036;5.566;2022-08-19T08:25:47;49.45;;;26.42;;
72899;SDS011;61043;52.036;5.566;2022-08-19T08:28:15;45.75;;;24.85;;
72899;SDS011;61043;52.036;5.566;2022-08-19T08:30:43;47.53;;;25.70;;
72899;SDS011;61043;52.036;5.566;2022-08-19T08:33:17;51.08;;;26.77;;
72899;SDS011;61043;52.036;5.566;2022-08-19T08:36:06;50.50;;;25.77;;
72899;SDS011;61043;52.036;5.566;2022-08-19T08:38:35;49.22;;;26.95;;
72899;SDS011;61043;52.036;5.566;2022-08-19T08:41:15;43.42;;;24.95;;
72899;SDS011;61043;52.036;5.566;2022-08-19T08:43:57;46.35;;;24.83;;
72899;SDS011;61043;52.036;5.566;2022-08-19T08:46:34;42.97;;;23.25;;
72899;SDS011;61043;52.036;5.566;2022-08-19T08:49:16;46.88;;;25.98;;
72899;SDS011;61043;52.036;5.566;2022-08-19T08:51:58;42.90;;;25.13;;
72899;SDS011;61043;52.036;5.566;2022-08-19T08:54:33;41.45;;;23.55;;
72899;SDS011;61043;52.036;5.566;2022-08-19T08:57:05;46.35;;;25.10;;
72899;SDS011;61043;52.036;5.566;2022-08-19T08:59:39;44.33;;;25.20;;
72899;SDS011;61043;52.036;5.566;2022-08-19T09:02:07;43.97;;;25.92;;
72899;SDS011;61043;52.036;5.566;2022-08-19T09:04:35;45.92;;;24.48;;
72899;SDS011;61043;52.036;5.566;2022-08-19T09:10:03;45.10;;;24.70;;
72899;SDS011;61043;52.036;5.566;2022-08-19T09:15:08;40.05;;;22.98;;
72899;SDS011;61043;52.036;5.566;2022-08-19T09:17:38;36.30;;;21.02;;
72899;SDS011;61043;52.036;5.566;2022-08-19T09:22:44;35.72;;;21.27;;
72899;SDS011;61043;52.036;5.566;2022-08-19T09:25:13;36.58;;;21.38;;
72899;SDS011;61043;52.036;5.566;2022-08-19T09:27:50;34.97;;;21.10;;
72899;SDS011;61043;52.036;5.566;2022-08-19T09:30:24;36.38;;;20.55;;
72899;SDS011;61043;52.036;5.566;2022-08-19T09:32:56;33.53;;;21.05;;
72899;SDS011;61043;52.036;5.566;2022-08-19T09:35:24;38.60;;;22.67;;
72899;SDS011;61043;52.036;5.566;2022-08-19T09:40:25;39.38;;;22.35;;
72899;SDS011;61043;52.036;5.566;2022-08-19T09:42:58;34.67;;;19.50;;
72899;SDS011;61043;52.036;5.566;2022-08-19T09:45:35;32.60;;;20.23;;
72899;SDS011;61043;52.036;5.566;2022-08-19T09:48:01;33.08;;;20.17;;
72899;SDS011;61043;52.036;5.566;2022-08-19T09:50:28;34.90;;;19.98;;
72899;SDS011;61043;52.036;5.566;2022-08-19T09:53:17;33.45;;;20.35;;
72899;SDS011;61043;52.036;5.566;2022-08-19T09:55:44;30.40;;;19.05;;
72899;SDS011;61043;52.036;5.566;2022-08-19T09:58:11;35.85;;;20.25;;
72899;SDS011;61043;52.036;5.566;2022-08-19T10:00:37;33.63;;;21.17;;
72899;SDS011;61043;52.036;5.566;2022-08-19T10:03:04;30.83;;;18.98;;
72899;SDS011;61043;52.036;5.566;2022-08-19T10:05:32;32.92;;;19.20;;
72899;SDS011;61043;52.036;5.566;2022-08-19T10:08:28;26.98;;;18.08;;
72899;SDS011;61043;52.036;5.566;2022-08-19T10:10:59;32.97;;;19.58;;
72899;SDS011;61043;52.036;5.566;2022-08-19T10:13:47;28.17;;;18.90;;
72899;SDS011;61043;52.036;5.566;2022-08-19T10:16:16;31.67;;;18.73;;
72899;SDS011;61043;52.036;5.566;2022-08-19T10:18:46;27.50;;;17.45;;
72899;SDS011;61043;52.036;5.566;2022-08-19T10:21:16;28.58;;;17.60;;
72899;SDS011;61043;52.036;5.566;2022-08-19T10:23:51;27.83;;;18.38;;
72899;SDS011;61043;52.036;5.566;2022-08-19T10:26:24;28.65;;;17.33;;
72899;SDS011;61043;52.036;5.566;2022-08-19T10:28:56;23.58;;;13.20;;
72899;SDS011;61043;52.036;5.566;2022-08-19T10:31:24;27.50;;;18.35;;
72899;SDS011;61043;52.036;5.566;2022-08-19T10:34:13;24.75;;;17.02;;
72899;SDS011;61043;52.036;5.566;2022-08-19T10:36:53;27.25;;;17.95;;
72899;SDS011;61043;52.036;5.566;2022-08-19T10:39:26;30.17;;;17.63;;
72899;SDS011;61043;52.036;5.566;2022-08-19T10:42:06;28.40;;;18.30;;
72899;SDS011;61043;52.036;5.566;2022-08-19T10:44:33;27.70;;;16.75;;
72899;SDS011;61043;52.036;5.566;2022-08-19T10:47:01;31.50;;;19.45;;
72899;SDS011;61043;52.036;5.566;2022-08-19T10:49:43;26.65;;;17.83;;
72899;SDS011;61043;52.036;5.566;2022-08-19T10:52:28;28.80;;;20.27;;
72899;SDS011;61043;52.036;5.566;2022-08-19T10:55:04;31.10;;;18.75;;
72899;SDS011;61043;52.036;5.566;2022-08-19T10:57:54;28.67;;;18.27;;
72899;SDS011;61043;52.036;5.566;2022-08-19T11:00:28;28.92;;;17.88;;
72899;SDS011;61043;52.036;5.566;2022-08-19T11:02:57;25.67;;;17.00;;
72899;SDS011;61043;52.036;5.566;2022-08-19T11:05:23;28.42;;;18.13;;
72899;SDS011;61043;52.036;5.566;2022-08-19T11:07:50;25.00;;;17.48;;
72899;SDS011;61043;52.036;5.566;2022-08-19T11:10:18;31.00;;;21.80;;
72899;SDS011;61043;52.036;5.566;2022-08-19T11:12:47;30.50;;;20.23;;
72899;SDS011;61043;52.036;5.566;2022-08-19T11:15:14;27.23;;;18.25;;
72899;SDS011;61043;52.036;5.566;2022-08-19T11:17:41;29.17;;;19.52;;
72899;SDS011;61043;52.036;5.566;2022-08-19T11:20:10;26.17;;;17.40;;
72899;SDS011;61043;52.036;5.566;2022-08-19T11:22:39;30.35;;;21.50;;
72899;SDS011;61043;52.036;5.566;2022-08-19T11:25:08;29.95;;;20.10;;
72899;SDS011;61043;52.036;5.566;2022-08-19T11:27:37;31.70;;;20.77;;
72899;SDS011;61043;52.036;5.566;2022-08-19T11:30:09;27.50;;;18.90;;
72899;SDS011;61043;52.036;5.566;2022-08-19T11:32:38;29.15;;;20.98;;
72899;SDS011;61043;52.036;5.566;2022-08-19T11:35:14;32.40;;;20.77;;
72899;SDS011;61043;52.036;5.566;2022-08-19T11:37:42;32.70;;;22.90;;
72899;SDS011;61043;52.036;5.566;2022-08-19T11:40:09;28.50;;;21.42;;
72899;SDS011;61043;52.036;5.566;2022-08-19T11:42:36;28.38;;;19.90;;
72899;SDS011;61043;52.036;5.566;2022-08-19T11:45:22;33.88;;;20.63;;
72899;SDS011;61043;52.036;5.566;2022-08-19T11:47:50;34.22;;;21.75;;
72899;SDS011;61043;52.036;5.566;2022-08-19T11:50:17;35.70;;;22.95;;
72899;SDS011;61043;52.036;5.566;2022-08-19T11:52:45;36.92;;;22.80;;
72899;SDS011;61043;52.036;5.566;2022-08-19T11:55:13;36.58;;;24.02;;
72899;SDS011;61043;52.036;5.566;2022-08-19T11:57:40;31.60;;;21.45;;
72899;SDS011;61043;52.036;5.566;2022-08-19T12:00:10;36.58;;;22.92;;
72899;SDS011;61043;52.036;5.566;2022-08-19T12:02:39;36.13;;;22.60;;
72899;SDS011;61043;52.036;5.566;2022-08-19T12:05:06;27.95;;;20.15;;
72899;SDS011;61043;52.036;5.566;2022-08-19T12:07:37;37.10;;;25.38;;
72899;SDS011;61043;52.036;5.566;2022-08-19T12:10:04;33.03;;;24.15;;
72899;SDS011;61043;52.036;5.566;2022-08-19T12:12:33;31.35;;;19.58;;
72899;SDS011;61043;52.036;5.566;2022-08-19T12:15:00;30.83;;;22.52;;
72899;SDS011;61043;52.036;5.566;2022-08-19T12:17:26;35.15;;;23.00;;
72899;SDS011;61043;52.036;5.566;2022-08-19T12:19:53;35.10;;;23.15;;
72899;SDS011;61043;52.036;5.566;2022-08-19T12:22:20;36.58;;;25.25;;
72899;SDS011;61043;52.036;5.566;2022-08-19T12:24:47;32.78;;;22.85;;
72899;SDS011;61043;52.036;5.566;2022-08-19T12:27:17;31.73;;;22.90;;
72899;SDS011;61043;52.036;5.566;2022-08-19T12:30:05;31.17;;;20.15;;
72899;SDS011;61043;52.036;5.566;2022-08-19T12:32:33;30.70;;;22.50;;
72899;SDS011;61043;52.036;5.566;2022-08-19T12:35:00;30.42;;;22.02;;
72899;SDS011;61043;52.036;5.566;2022-08-19T12:37:27;35.78;;;24.10;;
72899;SDS011;61043;52.036;5.566;2022-08-19T12:39:54;30.17;;;23.45;;
72899;SDS011;61043;52.036;5.566;2022-08-19T12:42:21;26.70;;;20.02;;
72899;SDS011;61043;52.036;5.566;2022-08-19T12:44:48;29.35;;;22.48;;
72899;SDS011;61043;52.036;5.566;2022-08-19T12:47:15;26.95;;;22.00;;
72899;SDS011;61043;52.036;5.566;2022-08-19T12:49:44;31.02;;;22.45;;
72899;SDS011;61043;52.036;5.566;2022-08-19T12:52:20;28.27;;;20.75;;
72899;SDS011;61043;52.036;5.566;2022-08-19T12:54:49;29.65;;;22.48;;
72899;SDS011;61043;52.036;5.566;2022-08-19T12:57:19;26.70;;;22.23;;
72899;SDS011;61043;52.036;5.566;2022-08-19T12:59:57;26.55;;;19.85;;
72899;SDS011;61043;52.036;5.566;2022-08-19T13:02:24;21.35;;;18.45;;
72899;SDS011;61043;52.036;5.566;2022-08-19T13:04:50;27.85;;;18.00;;
72899;SDS011;61043;52.036;5.566;2022-08-19T13:07:17;26.38;;;19.63;;
72899;SDS011;61043;52.036;5.566;2022-08-19T13:09:44;24.00;;;19.33;;
72899;SDS011;61043;52.036;5.566;2022-08-19T13:12:10;27.55;;;21.13;;
72899;SDS011;61043;52.036;5.566;2022-08-19T13:14:39;25.13;;;18.20;;
72899;SDS011;61043;52.036;5.566;2022-08-19T13:17:07;24.58;;;18.85;;
72899;SDS011;61043;52.036;5.566;2022-08-19T13:19:36;24.83;;;18.58;;
72899;SDS011;61043;52.036;5.566;2022-08-19T13:22:03;25.27;;;18.83;;
72899;SDS011;61043;52.036;5.566;2022-08-19T13:24:40;26.45;;;21.25;;
72899;SDS011;61043;52.036;5.566;2022-08-19T13:27:12;28.27;;;22.33;;
72899;SDS011;61043;52.036;5.566;2022-08-19T13:29:39;25.10;;;18.63;;
72899;SDS011;61043;52.036;5.566;2022-08-19T13:32:28;25.23;;;18.08;;
72899;SDS011;61043;52.036;5.566;2022-08-19T13:35:15;24.77;;;19.73;;
72899;SDS011;61043;52.036;5.566;2022-08-19T13:37:43;24.23;;;18.60;;
72899;SDS011;61043;52.036;5.566;2022-08-19T13:42:42;20.33;;;15.90;;
72899;SDS011;61043;52.036;5.566;2022-08-19T13:45:14;24.05;;;16.13;;
72899;SDS011;61043;52.036;5.566;2022-08-19T13:47:45;18.90;;;14.93;;
72899;SDS011;61043;52.036;5.566;2022-08-19T13:50:25;17.92;;;15.15;;
72899;SDS011;61043;52.036;5.566;2022-08-19T13:55:21;20.25;;;14.57;;
72899;SDS011;61043;52.036;5.566;2022-08-19T13:57:51;18.58;;;14.25;;
72899;SDS011;61043;52.036;5.566;2022-08-19T14:00:20;23.73;;;14.75;;
72899;SDS011;61043;52.036;5.566;2022-08-19T14:02:49;20.77;;;13.98;;
72899;SDS011;61043;52.036;5.566;2022-08-19T14:05:17;21.25;;;15.50;;
72899;SDS011;61043;52.036;5.566;2022-08-19T14:07:45;17.73;;;14.50;;
72899;SDS011;61043;52.036;5.566;2022-08-19T14:10:12;16.48;;;13.10;;
72899;SDS011;61043;52.036;5.566;2022-08-19T14:12:39;18.42;;;14.05;;
72899;SDS011;61043;52.036;5.566;2022-08-19T14:15:07;15.60;;;13.25;;
72899;SDS011;61043;52.036;5.566;2022-08-19T14:17:37;14.13;;;11.50;;
72899;SDS011;61043;52.036;5.566;2022-08-19T14:20:05;14.48;;;11.98;;
72899;SDS011;61043;52.036;5.566;2022-08-19T14:22:36;14.13;;;10.38;;
72899;SDS011;61043;52.036;5.566;2022-08-19T14:25:05;17.83;;;11.77;;
72899;SDS011;61043;52.036;5.566;2022-08-19T14:27:34;18.10;;;10.88;;
72899;SDS011;61043;52.036;5.566;2022-08-19T14:30:03;11.85;;;8.75;;
72899;SDS011;61043;52.036;5.566;2022-08-19T14:32:31;12.85;;;9.38;;
72899;SDS011;61043;52.036;5.566;2022-08-19T14:34:58;14.10;;;9.73;;
72899;SDS011;61043;52.036;5.566;2022-08-19T14:37:24;12.45;;;9.52;;
72899;SDS011;61043;52.036;5.566;2022-08-19T14:39:53;12.20;;;9.52;;
72899;SDS011;61043;52.036;5.566;2022-08-19T14:42:20;11.95;;;9.05;;
72899;SDS011;61043;52.036;5.566;2022-08-19T14:44:46;9.60;;;8.23;;
72899;SDS011;61043;52.036;5.566;2022-08-19T14:47:13;9.27;;;7.97;;
72899;SDS011;61043;52.036;5.566;2022-08-19T14:49:39;9.95;;;8.50;;
72899;SDS011;61043;52.036;5.566;2022-08-19T14:52:12;10.00;;;8.05;;
72899;SDS011;61043;52.036;5.566;2022-08-19T14:54:38;10.25;;;8.07;;
72899;SDS011;61043;52.036;5.566;2022-08-19T14:57:05;10.70;;;8.65;;
72899;SDS011;61043;52.036;5.566;2022-08-19T14:59:32;9.48;;;7.88;;
72899;SDS011;61043;52.036;5.566;2022-08-19T15:02:01;9.10;;;7.95;;
72899;SDS011;61043;52.036;5.566;2022-08-19T15:04:47;8.10;;;7.30;;
72899;SDS011;61043;52.036;5.566;2022-08-19T15:07:24;8.48;;;7.63;;
72899;SDS011;61043;52.036;5.566;2022-08-19T15:09:54;10.82;;;7.45;;